Time;durP1;ratioP1;P1;durP2;ratioP2;P2;SDS_P1;SDS_P2;PMS_P1;PMS_P2;Temp;Humidity;BMP_temperature;BMP_pressure;BME280_temperature;BME280_humidity;BME280_pressure;Samples;Min_cycle;Max_cycle;Signal;HPM_P1;HPM_P2
2022/06/28 00:01:56;;;;;;;;;;;18.30;79.60;;;;;;5051895;28;19999;-60
2022/06/28 00:04:22;;;;;;;;;;;18.20;80.30;;;;;;5051678;28;20280;-60
2022/06/28 00:06:47;;;;;;;;;;;18.30;80.30;;;;;;5052476;28;19962;-60
2022/06/28 00:09:14;;;;;;;;;;;18.20;79.60;;;;;;5051782;28;19931;-60
2022/06/28 00:11:40;;;;;;;;;;;18.20;80.10;;;;;;5051643;28;19955;-60
2022/06/28 00:16:04;;;;;;;;;;;18.20;79.70;;;;;;5051424;28;19983;-60
2022/06/28 00:16:51;;;;;;;;;;;18.10;79.50;;;;;;5051074;28;19917;-60
2022/06/28 00:19:16;;;;;;;;;;;18.10;80.20;;;;;;5051274;28;19932;-59
2022/06/28 00:21:42;;;;;;;;;;;18.20;80.60;;;;;;5052797;28;20317;-60
2022/06/28 00:24:08;;;;;;;;;;;18.10;80.50;;;;;;5051447;28;19916;-60
2022/06/28 00:26:33;;;;;;;;;;;18.10;80.90;;;;;;5050917;28;19948;-61
2022/06/28 00:28:59;;;;;;;;;;;18.20;81.80;;;;;;5051980;28;20286;-60
2022/06/28 00:31:25;;;;;;;;;;;18.10;81.50;;;;;;5051203;28;20544;-61
2022/06/28 00:33:51;;;;;;;;;;;18.10;81.10;;;;;;5054206;28;19946;-61
2022/06/28 00:36:16;;;;;;;;;;;18.00;81.00;;;;;;5051094;28;19914;-60
2022/06/28 00:38:42;;;;;;;;;;;18.00;81.10;;;;;;5050984;28;20298;-60
2022/06/28 00:41:08;;;;;;;;;;;18.00;81.00;;;;;;5051185;28;19913;-60
2022/06/28 00:43:34;;;;;;;;;;;18.00;81.90;;;;;;5051259;28;19913;-60
2022/06/28 00:45:59;;;;;;;;;;;18.00;81.30;;;;;;5051183;28;19962;-60
2022/06/28 00:48:26;;;;;;;;;;;18.00;81.60;;;;;;5051019;28;19954;-60
2022/06/28 00:50:52;;;;;;;;;;;17.90;82.10;;;;;;5049943;28;19952;-60
2022/06/28 00:53:18;;;;;;;;;;;17.90;81.60;;;;;;5051054;28;20015;-59
2022/06/28 00:55:44;;;;;;;;;;;17.90;81.60;;;;;;5050608;28;19920;-59
2022/06/28 00:58:10;;;;;;;;;;;17.90;82.20;;;;;;5049221;28;20403;-61
2022/06/28 01:00:43;;;;;;;;;;;17.90;82.30;;;;;;5051766;28;19995;-59
2022/06/28 01:03:11;;;;;;;;;;;17.90;82.20;;;;;;5050001;28;19921;-61
2022/06/28 01:05:37;;;;;;;;;;;17.80;81.50;;;;;;5050371;28;20330;-61
2022/06/28 01:08:03;;;;;;;;;;;17.80;82.20;;;;;;5050182;28;19996;-60
2022/06/28 01:10:29;;;;;;;;;;;17.80;82.80;;;;;;5050523;28;20046;-60
2022/06/28 01:12:54;;;;;;;;;;;17.80;83.50;;;;;;5051621;28;19930;-61
2022/06/28 01:15:20;;;;;;;;;;;17.70;83.10;;;;;;5050489;28;19915;-61
2022/06/28 01:17:45;;;;;;;;;;;17.70;83.00;;;;;;5050338;28;20387;-60
2022/06/28 01:20:11;;;;;;;;;;;17.70;82.90;;;;;;5053311;28;19917;-60
2022/06/28 01:22:38;;;;;;;;;;;17.70;83.00;;;;;;5050346;28;20413;-61
2022/06/28 01:25:04;;;;;;;;;;;17.70;83.70;;;;;;5051632;28;19916;-61
2022/06/28 01:27:29;;;;;;;;;;;17.60;83.10;;;;;;5052791;28;20287;-60
2022/06/28 01:29:55;;;;;;;;;;;17.60;83.40;;;;;;5050310;28;20397;-60
2022/06/28 01:32:20;;;;;;;;;;;17.60;83.00;;;;;;5049767;28;20411;-61
2022/06/28 01:34:46;;;;;;;;;;;17.60;83.50;;;;;;5049991;28;19938;-59
2022/06/28 01:37:12;;;;;;;;;;;17.60;83.80;;;;;;5031951;28;19916;-60
2022/06/28 01:39:37;;;;;;;;;;;17.60;83.70;;;;;;5033293;28;19913;-64
2022/06/28 01:42:03;;;;;;;;;;;17.50;83.20;;;;;;5049880;28;20295;-60
2022/06/28 01:44:29;;;;;;;;;;;17.50;83.90;;;;;;5050111;28;20003;-60
2022/06/28 01:46:55;;;;;;;;;;;17.50;83.30;;;;;;5049390;28;19913;-60
2022/06/28 01:49:21;;;;;;;;;;;17.40;84.10;;;;;;5049795;28;19927;-60
2022/06/28 01:51:47;;;;;;;;;;;17.40;84.30;;;;;;5050891;28;19909;-60
2022/06/28 01:54:12;;;;;;;;;;;17.40;84.00;;;;;;5049177;28;19921;-61
2022/06/28 01:56:38;;;;;;;;;;;17.30;83.60;;;;;;5031700;28;19960;-59
2022/06/28 01:59:03;;;;;;;;;;;17.40;84.40;;;;;;5049446;28;19923;-61
2022/06/28 02:01:29;;;;;;;;;;;17.40;84.30;;;;;;5049636;28;19982;-60
2022/06/28 02:03:54;;;;;;;;;;;17.30;84.20;;;;;;5050526;28;20091;-60
2022/06/28 02:06:20;;;;;;;;;;;17.30;84.40;;;;;;5050037;28;19959;-60
2022/06/28 02:08:45;;;;;;;;;;;17.30;85.40;;;;;;5049411;28;19948;-61
2022/06/28 02:11:11;;;;;;;;;;;17.30;85.80;;;;;;5051592;28;19913;-60
2022/06/28 02:13:36;;;;;;;;;;;17.30;85.90;;;;;;5049759;28;19940;-61
2022/06/28 02:16:05;;;;;;;;;;;17.30;86.10;;;;;;5049581;28;19916;-61
2022/06/28 02:18:31;;;;;;;;;;;17.20;85.80;;;;;;5050035;28;19920;-60
2022/06/28 02:20:57;;;;;;;;;;;17.20;86.40;;;;;;5049845;28;19935;-61
2022/06/28 02:23:23;;;;;;;;;;;17.20;86.90;;;;;;5031385;28;19966;-59
2022/06/28 02:25:48;;;;;;;;;;;17.20;86.50;;;;;;5049472;28;19909;-60
2022/06/28 02:28:16;;;;;;;;;;;17.20;86.30;;;;;;5049270;28;20916;-62
2022/06/28 02:30:42;;;;;;;;;;;17.20;86.30;;;;;;5050112;28;20391;-60
2022/06/28 02:33:08;;;;;;;;;;;17.10;86.50;;;;;;5049222;28;19909;-59
2022/06/28 02:41:01;;;;;;;;;;;17.10;86.10;;;;;;5044345;28;20012;-60
2022/06/28 02:43:27;;;;;;;;;;;17.10;86.70;;;;;;5031606;28;19995;-60
2022/06/28 02:45:52;;;;;;;;;;;17.10;87.10;;;;;;5050184;28;19917;-61
2022/06/28 02:48:19;;;;;;;;;;;17.00;86.70;;;;;;5049127;28;20341;-60
2022/06/28 02:50:44;;;;;;;;;;;17.00;86.70;;;;;;5049644;28;19913;-60
2022/06/28 02:53:10;;;;;;;;;;;17.00;85.60;;;;;;5048947;28;19915;-60
2022/06/28 02:55:35;;;;;;;;;;;17.00;85.70;;;;;;5049105;28;20484;-60
2022/06/28 02:58:01;;;;;;;;;;;16.90;87.10;;;;;;5049407;28;20377;-61
2022/06/28 03:00:27;;;;;;;;;;;17.00;86.50;;;;;;5023661;28;19909;-61
2022/06/28 03:02:52;;;;;;;;;;;16.90;86.20;;;;;;5048764;28;19917;-60
2022/06/28 03:05:19;;;;;;;;;;;16.90;86.50;;;;;;5049286;28;20409;-60
2022/06/28 03:07:45;;;;;;;;;;;16.90;86.40;;;;;;5049064;28;19913;-61
2022/06/28 03:10:11;;;;;;;;;;;16.90;87.20;;;;;;5048841;28;19909;-58
2022/06/28 03:12:36;;;;;;;;;;;16.90;86.70;;;;;;5050284;28;19936;-60
2022/06/28 03:15:03;;;;;;;;;;;16.90;85.80;;;;;;5052443;28;19917;-61
2022/06/28 03:17:28;;;;;;;;;;;16.80;85.60;;;;;;5052576;28;19975;-59
2022/06/28 03:19:54;;;;;;;;;;;16.80;86.20;;;;;;5052857;28;19916;-59
2022/06/28 03:22:19;;;;;;;;;;;16.80;86.30;;;;;;5052489;28;19913;-61
2022/06/28 03:24:46;;;;;;;;;;;16.80;86.80;;;;;;5053260;28;19916;-61
2022/06/28 03:27:12;;;;;;;;;;;16.80;86.00;;;;;;5052258;28;19916;-60
2022/06/28 03:29:37;;;;;;;;;;;16.80;85.80;;;;;;5052354;28;19913;-60
2022/06/28 03:32:03;;;;;;;;;;;16.80;86.20;;;;;;5052512;28;20375;-59
2022/06/28 03:34:29;;;;;;;;;;;16.80;86.40;;;;;;5052454;28;19917;-60
2022/06/28 03:36:55;;;;;;;;;;;16.70;87.10;;;;;;5053491;28;19913;-60
2022/06/28 03:39:21;;;;;;;;;;;16.70;87.00;;;;;;5052622;28;19919;-60
2022/06/28 03:41:46;;;;;;;;;;;16.70;86.90;;;;;;5051856;28;19909;-60
2022/06/28 03:44:11;;;;;;;;;;;16.70;86.10;;;;;;5051953;28;19920;-58
2022/06/28 03:46:37;;;;;;;;;;;16.70;86.20;;;;;;5052216;28;19909;-60
2022/06/28 03:49:03;;;;;;;;;;;16.70;86.20;;;;;;5053550;28;19912;-60
2022/06/28 03:51:28;;;;;;;;;;;16.70;86.90;;;;;;5052815;28;19921;-60
2022/06/28 03:53:53;;;;;;;;;;;16.70;86.40;;;;;;5053638;28;19913;-60
2022/06/28 03:56:19;;;;;;;;;;;16.70;86.20;;;;;;5051452;28;20298;-60
2022/06/28 03:58:44;;;;;;;;;;;16.70;86.10;;;;;;5051758;28;20445;-60
2022/06/28 04:01:10;;;;;;;;;;;16.70;86.60;;;;;;5052227;28;19913;-60
2022/06/28 04:03:35;;;;;;;;;;;16.60;86.40;;;;;;5052401;28;19931;-60
2022/06/28 04:06:02;;;;;;;;;;;16.60;86.30;;;;;;5051384;28;19916;-60
2022/06/28 04:08:27;;;;;;;;;;;16.60;86.00;;;;;;5051583;28;19913;-58
2022/06/28 04:13:37;;;;;;;;;;;16.60;86.70;;;;;;5052095;28;20289;-60
2022/06/28 04:16:03;;;;;;;;;;;16.60;86.60;;;;;;5051595;28;19949;-60
2022/06/28 04:18:29;;;;;;;;;;;16.60;86.50;;;;;;5052384;28;19963;-60
2022/06/28 04:20:55;;;;;;;;;;;16.60;87.30;;;;;;5051747;28;19920;-60
2022/06/28 04:23:20;;;;;;;;;;;16.70;87.70;;;;;;5051044;28;19935;-60
2022/06/28 04:25:46;;;;;;;;;;;16.70;86.50;;;;;;5050106;28;19921;-60
2022/06/28 04:28:11;;;;;;;;;;;16.70;86.60;;;;;;5051329;28;21096;-58
2022/06/28 04:30:37;;;;;;;;;;;16.70;86.60;;;;;;5052176;28;19920;-60
2022/06/28 04:33:02;;;;;;;;;;;16.70;87.00;;;;;;5051244;28;19920;-60
2022/06/28 04:35:28;;;;;;;;;;;16.70;86.50;;;;;;5051466;28;20422;-60
2022/06/28 04:37:53;;;;;;;;;;;16.70;87.00;;;;;;5050906;28;20268;-60
2022/06/28 04:40:19;;;;;;;;;;;16.80;86.90;;;;;;5050749;28;19912;-60
2022/06/28 04:42:44;;;;;;;;;;;16.80;87.00;;;;;;5052005;28;20050;-60
2022/06/28 04:45:10;;;;;;;;;;;16.90;86.50;;;;;;5050678;28;20297;-61
2022/06/28 04:47:36;;;;;;;;;;;16.90;86.40;;;;;;5050481;28;19978;-60
2022/06/28 04:50:01;;;;;;;;;;;16.90;86.30;;;;;;5050690;28;19913;-59
2022/06/28 04:52:27;;;;;;;;;;;17.00;86.80;;;;;;5051006;28;19913;-60
2022/06/28 04:54:53;;;;;;;;;;;17.00;86.60;;;;;;5051896;28;19916;-60
2022/06/28 04:57:18;;;;;;;;;;;17.10;86.80;;;;;;5050184;28;19921;-59
2022/06/28 04:59:44;;;;;;;;;;;17.10;86.60;;;;;;5050440;28;19913;-60
2022/06/28 05:02:10;;;;;;;;;;;17.10;86.80;;;;;;5050201;28;19916;-60
2022/06/28 05:04:35;;;;;;;;;;;17.20;86.70;;;;;;5050429;28;19927;-60
2022/06/28 05:07:01;;;;;;;;;;;17.30;86.60;;;;;;5051238;28;19959;-60
2022/06/28 05:09:26;;;;;;;;;;;17.30;86.40;;;;;;5050599;28;20015;-60
2022/06/28 05:11:52;;;;;;;;;;;17.40;86.60;;;;;;5050398;28;19923;-59
2022/06/28 05:14:17;;;;;;;;;;;17.50;86.40;;;;;;5050807;28;19958;-61
2022/06/28 05:16:44;;;;;;;;;;;17.50;86.10;;;;;;5049816;28;19917;-61
2022/06/28 05:19:09;;;;;;;;;;;17.60;86.30;;;;;;5051202;28;19912;-61
2022/06/28 05:21:35;;;;;;;;;;;17.70;86.50;;;;;;5050946;28;19909;-59
2022/06/28 05:24:00;;;;;;;;;;;17.70;86.30;;;;;;5049744;28;19916;-61
2022/06/28 05:26:26;;;;;;;;;;;17.80;86.20;;;;;;5051084;28;19934;-59
2022/06/28 05:28:51;;;;;;;;;;;17.90;86.20;;;;;;5050310;28;19916;-61
2022/06/28 05:31:17;;;;;;;;;;;18.00;87.20;;;;;;5049907;28;19913;-61
2022/06/28 05:33:42;;;;;;;;;;;18.00;86.20;;;;;;5033334;28;19919;-61
2022/06/28 05:36:08;;;;;;;;;;;18.10;86.00;;;;;;5049335;28;19917;-61
2022/06/28 05:38:33;;;;;;;;;;;18.10;85.90;;;;;;5049977;28;20276;-61
2022/06/28 05:40:59;;;;;;;;;;;18.20;85.70;;;;;;5049597;28;19967;-61
2022/06/28 05:43:24;;;;;;;;;;;18.30;86.10;;;;;;5050358;28;19996;-61
2022/06/28 05:45:50;;;;;;;;;;;18.30;85.70;;;;;;5050840;28;19908;-60
2022/06/28 05:48:15;;;;;;;;;;;18.40;85.00;;;;;;5049702;28;19965;-61
2022/06/28 05:50:41;;;;;;;;;;;18.40;84.40;;;;;;5049614;28;20015;-61
2022/06/28 05:53:06;;;;;;;;;;;18.30;84.20;;;;;;5049541;28;19912;-60
2022/06/28 05:55:32;;;;;;;;;;;18.30;83.60;;;;;;5049506;28;19923;-61
2022/06/28 05:57:57;;;;;;;;;;;18.30;83.70;;;;;;5050573;28;19924;-61
2022/06/28 06:00:23;;;;;;;;;;;18.30;83.60;;;;;;5050124;28;20003;-61
2022/06/28 06:02:49;;;;;;;;;;;18.30;83.30;;;;;;5049680;28;19965;-61
2022/06/28 06:05:15;;;;;;;;;;;18.30;83.60;;;;;;5049207;28;19924;-61
2022/06/28 06:07:40;;;;;;;;;;;18.30;83.50;;;;;;5049572;28;20046;-61
2022/06/28 06:10:06;;;;;;;;;;;18.40;84.40;;;;;;5049777;28;19909;-61
2022/06/28 06:12:31;;;;;;;;;;;18.30;82.50;;;;;;5051288;28;19909;-61
2022/06/28 06:14:58;;;;;;;;;;;18.30;82.50;;;;;;5049545;28;20484;-61
2022/06/28 06:17:23;;;;;;;;;;;18.20;82.50;;;;;;5049048;28;19929;-61
2022/06/28 06:19:49;;;;;;;;;;;18.20;82.40;;;;;;5049552;28;20023;-61
2022/06/28 06:22:15;;;;;;;;;;;18.10;82.30;;;;;;5049737;28;19917;-61
2022/06/28 06:24:40;;;;;;;;;;;18.10;82.40;;;;;;5050463;28;19940;-61
2022/06/28 06:27:06;;;;;;;;;;;18.10;82.40;;;;;;5049220;28;19917;-60
2022/06/28 06:29:32;;;;;;;;;;;18.10;82.60;;;;;;5049243;28;19952;-60
2022/06/28 06:31:57;;;;;;;;;;;18.10;82.30;;;;;;5049358;28;19924;-61
2022/06/28 06:34:23;;;;;;;;;;;18.10;82.40;;;;;;5031900;28;19931;-61
2022/06/28 06:36:48;;;;;;;;;;;18.10;82.30;;;;;;5049822;28;19920;-60
2022/06/28 06:39:14;;;;;;;;;;;18.10;82.60;;;;;;5049048;28;19960;-60
2022/06/28 06:41:40;;;;;;;;;;;18.10;82.60;;;;;;5049196;28;19913;-61
2022/06/28 06:44:05;;;;;;;;;;;18.10;82.80;;;;;;5048966;28;20280;-61
2022/06/28 06:46:31;;;;;;;;;;;18.10;82.70;;;;;;5049649;28;19955;-59
2022/06/28 06:48:56;;;;;;;;;;;18.10;82.70;;;;;;5053015;28;19909;-61
2022/06/28 06:51:22;;;;;;;;;;;18.10;83.10;;;;;;5052956;28;20283;-61
2022/06/28 06:53:48;;;;;;;;;;;18.10;83.10;;;;;;5054348;28;20336;-60
2022/06/28 06:56:13;;;;;;;;;;;18.20;83.90;;;;;;5052908;28;20351;-60
2022/06/28 06:58:39;;;;;;;;;;;18.20;83.20;;;;;;5052685;28;19925;-60
2022/06/28 07:01:04;;;;;;;;;;;18.30;83.20;;;;;;5053316;28;20012;-60
2022/06/28 07:03:30;;;;;;;;;;;18.30;83.40;;;;;;5053349;28;19925;-60
2022/06/28 07:05:55;;;;;;;;;;;18.40;83.40;;;;;;5052376;28;19963;-61
2022/06/28 07:08:21;;;;;;;;;;;18.40;83.30;;;;;;5052891;28;19967;-61
2022/06/28 07:10:46;;;;;;;;;;;18.50;83.30;;;;;;5052923;28;22394;-59
2022/06/28 07:13:12;;;;;;;;;;;18.50;83.20;;;;;;5052806;28;19909;-60
2022/06/28 07:15:37;;;;;;;;;;;18.50;83.50;;;;;;5053996;28;19967;-59
2022/06/28 07:18:04;;;;;;;;;;;18.50;83.50;;;;;;5052406;28;19924;-60
2022/06/28 07:20:29;;;;;;;;;;;18.60;83.60;;;;;;5052076;28;19912;-60
2022/06/28 07:22:55;;;;;;;;;;;18.70;83.50;;;;;;5052500;28;19966;-60
2022/06/28 07:25:20;;;;;;;;;;;18.70;83.20;;;;;;5053019;28;19916;-60
2022/06/28 07:27:46;;;;;;;;;;;18.70;83.20;;;;;;5053787;28;19952;-59
2022/06/28 07:30:11;;;;;;;;;;;18.70;83.20;;;;;;5051994;28;19921;-60
2022/06/28 07:32:37;;;;;;;;;;;18.70;83.40;;;;;;5052110;28;20367;-60
2022/06/28 07:35:03;;;;;;;;;;;18.70;83.30;;;;;;5051641;28;19913;-59
2022/06/28 07:37:29;;;;;;;;;;;18.80;83.40;;;;;;5052632;28;19986;-60
2022/06/28 07:39:54;;;;;;;;;;;18.80;83.70;;;;;;5052987;28;20473;-59
2022/06/28 07:42:20;;;;;;;;;;;18.80;83.50;;;;;;5052299;28;20003;-60
2022/06/28 07:44:46;;;;;;;;;;;18.90;83.50;;;;;;5051423;28;20386;-60
2022/06/28 07:47:11;;;;;;;;;;;19.00;83.80;;;;;;5051080;28;19912;-59
2022/06/28 07:52:39;;;;;;;;;;;19.10;83.70;;;;;;5051846;28;19959;-59
2022/06/28 07:55:06;;;;;;;;;;;19.10;83.90;;;;;;5044098;28;19999;-63
2022/06/28 07:57:32;;;;;;;;;;;19.20;83.80;;;;;;5051896;28;19920;-64
2022/06/28 07:59:57;;;;;;;;;;;19.20;83.90;;;;;;5052025;28;19909;-64
2022/06/28 08:02:23;;;;;;;;;;;19.20;83.90;;;;;;5032782;28;19944;-64
2022/06/28 08:04:49;;;;;;;;;;;19.30;83.80;;;;;;5051112;28;19956;-64
2022/06/28 08:07:14;;;;;;;;;;;19.30;83.70;;;;;;5054420;28;19977;-65
2022/06/28 08:09:40;;;;;;;;;;;19.40;83.70;;;;;;5061799;28;20452;-65
2022/06/28 08:12:05;;;;;;;;;;;19.40;83.50;;;;;;5051884;28;19958;-65
2022/06/28 08:14:31;;;;;;;;;;;19.50;83.60;;;;;;5048372;28;20000;-65
2022/06/28 08:16:57;;;;;;;;;;;19.50;83.60;;;;;;5053058;28;19989;-63
2022/06/28 08:19:22;;;;;;;;;;;19.50;83.60;;;;;;5051321;28;19921;-64
2022/06/28 08:21:49;;;;;;;;;;;19.60;83.70;;;;;;5052092;28;19914;-63
2022/06/28 08:24:15;;;;;;;;;;;19.70;83.90;;;;;;5053574;28;19952;-63
2022/06/28 08:26:43;;;;;;;;;;;19.70;83.80;;;;;;5051318;28;20445;-64
2022/06/28 08:29:09;;;;;;;;;;;19.80;83.80;;;;;;5051550;28;19924;-64
2022/06/28 08:31:35;;;;;;;;;;;19.80;83.50;;;;;;5050321;28;20409;-62
2022/06/28 08:34:00;;;;;;;;;;;19.90;83.40;;;;;;5052466;28;19952;-63
2022/06/28 08:36:26;;;;;;;;;;;20.00;83.30;;;;;;5052471;28;19916;-65
2022/06/28 08:38:51;;;;;;;;;;;20.10;83.20;;;;;;5050635;28;19924;-64
2022/06/28 08:41:17;;;;;;;;;;;20.10;82.70;;;;;;5050341;28;19919;-63
2022/06/28 08:43:42;;;;;;;;;;;20.20;82.80;;;;;;5050027;28;19924;-63
2022/06/28 08:46:08;;;;;;;;;;;20.20;82.50;;;;;;5050560;28;19913;-63
2022/06/28 08:48:37;;;;;;;;;;;20.20;82.40;;;;;;5056322;28;19954;-63
2022/06/28 08:51:05;;;;;;;;;;;20.30;82.30;;;;;;5050974;28;19913;-64
2022/06/28 08:53:32;;;;;;;;;;;20.40;82.50;;;;;;5050757;28;19920;-65
2022/06/28 08:55:58;;;;;;;;;;;20.40;82.40;;;;;;5050995;28;19917;-65
2022/06/28 08:58:24;;;;;;;;;;;20.50;82.20;;;;;;5044321;28;19974;-66
2022/06/28 09:00:50;;;;;;;;;;;20.50;81.60;;;;;;5046129;28;19917;-63
2022/06/28 09:03:16;;;;;;;;;;;20.60;80.90;;;;;;5047073;28;19913;-64
2022/06/28 09:05:42;;;;;;;;;;;20.60;80.90;;;;;;5047640;28;19916;-59
2022/06/28 09:08:07;;;;;;;;;;;20.60;80.40;;;;;;5050015;28;19978;-64
2022/06/28 09:10:33;;;;;;;;;;;20.60;79.70;;;;;;5048351;28;19982;-63
2022/06/28 09:13:27;;;;;;;;;;;20.60;80.20;;;;;;5048830;28;19913;-65
2022/06/28 09:15:53;;;;;;;;;;;20.60;80.10;;;;;;4991889;28;20719;-64
2022/06/28 09:18:20;;;;;;;;;;;20.70;79.30;;;;;;5006366;28;19925;-62
2022/06/28 09:20:45;;;;;;;;;;;20.70;79.20;;;;;;5005025;28;19913;-64
2022/06/28 09:23:26;;;;;;;;;;;20.80;79.10;;;;;;5006217;28;19920;-63
2022/06/28 09:25:52;;;;;;;;;;;20.80;79.50;;;;;;5005808;28;19925;-62
2022/06/28 09:28:28;;;;;;;;;;;20.90;78.20;;;;;;5005551;28;19922;-61
2022/06/28 09:31:15;;;;;;;;;;;20.90;77.40;;;;;;5006197;28;20344;-61
2022/06/28 09:33:42;;;;;;;;;;;20.90;77.70;;;;;;5007069;28;20805;-63
2022/06/28 09:36:15;;;;;;;;;;;21.00;76.50;;;;;;5005796;28;19960;-64
2022/06/28 09:38:40;;;;;;;;;;;21.00;75.80;;;;;;5006261;28;19932;-63
2022/06/28 09:41:18;;;;;;;;;;;21.00;75.80;;;;;;5009619;28;19918;-63
2022/06/28 09:43:43;;;;;;;;;;;21.00;76.20;;;;;;5005305;28;19917;-64
2022/06/28 09:46:08;;;;;;;;;;;21.10;76.00;;;;;;5003228;28;19917;-62
2022/06/28 09:48:37;;;;;;;;;;;21.10;75.70;;;;;;5006059;28;19923;-62
2022/06/28 09:51:03;;;;;;;;;;;21.20;75.50;;;;;;5005969;28;19924;-62
2022/06/28 09:53:30;;;;;;;;;;;21.30;75.00;;;;;;5046593;28;19916;-63
2022/06/28 09:56:00;;;;;;;;;;;21.40;75.20;;;;;;5047536;28;19913;-63
2022/06/28 09:58:26;;;;;;;;;;;21.50;75.40;;;;;;5047016;28;19929;-61
2022/06/28 10:00:51;;;;;;;;;;;21.60;75.30;;;;;;5031298;28;19920;-63
2022/06/28 10:03:17;;;;;;;;;;;21.60;74.70;;;;;;5046780;28;20417;-63
2022/06/28 10:05:43;;;;;;;;;;;21.70;73.80;;;;;;5046788;28;20050;-61
2022/06/28 10:08:09;;;;;;;;;;;21.70;74.30;;;;;;5047143;28;20011;-65
2022/06/28 10:10:37;;;;;;;;;;;21.80;74.10;;;;;;5047874;28;19927;-63
2022/06/28 10:16:05;;;;;;;;;;;21.80;73.60;;;;;;5047492;28;19936;-63
2022/06/28 10:18:31;;;;;;;;;;;21.90;74.10;;;;;;5048516;28;19964;-63
2022/06/28 10:20:56;;;;;;;;;;;22.00;74.10;;;;;;5047238;28;19952;-61
2022/06/28 10:23:26;;;;;;;;;;;22.10;74.30;;;;;;5049472;28;19948;-64
2022/06/28 10:26:01;;;;;;;;;;;22.10;72.80;;;;;;5051021;28;19919;-62
2022/06/28 10:28:27;;;;;;;;;;;22.10;72.50;;;;;;5051248;28;19959;-63
2022/06/28 10:31:11;;;;;;;;;;;22.10;72.40;;;;;;5051952;28;19913;-63
2022/06/28 10:33:41;;;;;;;;;;;22.10;71.60;;;;;;5053051;28;19924;-62
2022/06/28 10:36:14;;;;;;;;;;;22.10;71.90;;;;;;5051124;28;19913;-63
2022/06/28 10:38:59;;;;;;;;;;;22.10;71.50;;;;;;5050769;28;19943;-63
2022/06/28 10:41:35;;;;;;;;;;;22.10;70.70;;;;;;5049305;28;19917;-63
2022/06/28 10:44:16;;;;;;;;;;;22.20;70.60;;;;;;5032155;28;19920;-59
2022/06/28 10:46:47;;;;;;;;;;;22.10;68.50;;;;;;5050879;28;19916;-62
2022/06/28 10:49:13;;;;;;;;;;;22.10;69.80;;;;;;5047410;28;19920;-64
2022/06/28 10:52:01;;;;;;;;;;;22.10;69.40;;;;;;5051460;28;19912;-60
2022/06/28 10:54:27;;;;;;;;;;;22.20;67.30;;;;;;5052174;28;19920;-63
2022/06/28 10:56:52;;;;;;;;;;;22.20;68.40;;;;;;5050295;28;20008;-63
2022/06/28 10:59:18;;;;;;;;;;;22.20;67.10;;;;;;5050275;28;19916;-61
2022/06/28 11:01:46;;;;;;;;;;;22.30;68.90;;;;;;5050715;28;19924;-63
2022/06/28 11:04:18;;;;;;;;;;;22.40;65.90;;;;;;5051960;28;19921;-62
2022/06/28 11:06:45;;;;;;;;;;;22.30;68.00;;;;;;5051789;28;20354;-62
2022/06/28 11:09:15;;;;;;;;;;;22.40;67.90;;;;;;5048645;28;19959;-62
2022/06/28 11:11:59;;;;;;;;;;;22.40;67.50;;;;;;5049802;28;19917;-64
2022/06/28 11:14:31;;;;;;;;;;;22.50;67.60;;;;;;5050063;28;19962;-61
2022/06/28 11:16:57;;;;;;;;;;;22.50;67.80;;;;;;5050618;28;19971;-62
2022/06/28 11:19:23;;;;;;;;;;;22.50;66.70;;;;;;5050806;28;19917;-61
2022/06/28 11:21:52;;;;;;;;;;;22.50;67.20;;;;;;5052211;28;19924;-64
2022/06/28 11:24:18;;;;;;;;;;;22.60;66.40;;;;;;5049861;28;19921;-64
2022/06/28 11:29:27;;;;;;;;;;;22.70;67.10;;;;;;5051215;28;19919;-62
2022/06/28 11:31:54;;;;;;;;;;;22.80;67.40;;;;;;5050386;28;19913;-63
2022/06/28 11:34:23;;;;;;;;;;;22.90;67.00;;;;;;5049546;28;19927;-63
2022/06/28 11:36:48;;;;;;;;;;;22.90;66.90;;;;;;5049818;28;19924;-63
2022/06/28 11:39:18;;;;;;;;;;;23.00;66.30;;;;;;5050288;28;20366;-60
2022/06/28 11:41:48;;;;;;;;;;;23.00;66.30;;;;;;5050302;28;19923;-63
2022/06/28 11:44:14;;;;;;;;;;;23.00;66.10;;;;;;5048080;28;20278;-64
2022/06/28 11:46:39;;;;;;;;;;;23.00;66.20;;;;;;5049936;28;19917;-64
2022/06/28 11:49:05;;;;;;;;;;;23.00;65.70;;;;;;5051479;28;20416;-61
2022/06/28 11:51:31;;;;;;;;;;;23.00;65.70;;;;;;5053060;28;20703;-64
2022/06/28 11:53:57;;;;;;;;;;;23.00;65.60;;;;;;5052474;28;19912;-64
2022/06/28 11:56:23;;;;;;;;;;;23.00;65.50;;;;;;5049964;28;19967;-63
2022/06/28 11:58:48;;;;;;;;;;;23.10;64.70;;;;;;5049674;28;19956;-64
2022/06/28 12:01:18;;;;;;;;;;;23.10;65.30;;;;;;5049726;28;19917;-60
2022/06/28 12:03:44;;;;;;;;;;;23.20;64.90;;;;;;5050294;28;20016;-62
2022/06/28 12:06:18;;;;;;;;;;;23.30;64.50;;;;;;5049608;28;20023;-62
2022/06/28 12:08:49;;;;;;;;;;;23.40;65.30;;;;;;5049230;28;19919;-62
2022/06/28 12:11:33;;;;;;;;;;;23.50;65.10;;;;;;5048932;28;20015;-64
2022/06/28 12:14:12;;;;;;;;;;;23.60;64.20;;;;;;5048354;28;19916;-62
2022/06/28 12:16:38;;;;;;;;;;;23.70;63.60;;;;;;5049146;28;19945;-63
2022/06/28 12:19:04;;;;;;;;;;;23.80;63.80;;;;;;5049959;28;20028;-62
2022/06/28 12:21:30;;;;;;;;;;;23.80;63.80;;;;;;5051556;28;19920;-64
2022/06/28 12:23:56;;;;;;;;;;;23.80;63.60;;;;;;5048495;28;19978;-62
2022/06/28 12:26:37;;;;;;;;;;;23.80;64.60;;;;;;5052540;28;19998;-62
2022/06/28 12:29:02;;;;;;;;;;;23.80;63.70;;;;;;5030758;28;19993;-62
2022/06/28 12:31:28;;;;;;;;;;;23.80;63.10;;;;;;5049775;28;20035;-62
2022/06/28 12:33:53;;;;;;;;;;;23.70;61.90;;;;;;5050641;28;19912;-63
2022/06/28 12:36:19;;;;;;;;;;;23.70;62.50;;;;;;5048481;28;19940;-61
2022/06/28 12:38:44;;;;;;;;;;;23.70;63.30;;;;;;5048762;28;20024;-62
2022/06/28 12:41:10;;;;;;;;;;;23.80;62.90;;;;;;5050423;28;19912;-64
2022/06/28 12:43:35;;;;;;;;;;;23.90;63.00;;;;;;5049375;28;19928;-59
2022/06/28 12:46:01;;;;;;;;;;;24.00;62.30;;;;;;5047738;28;19952;-64
2022/06/28 12:48:26;;;;;;;;;;;24.10;62.70;;;;;;5049954;28;20385;-58
2022/06/28 12:50:52;;;;;;;;;;;24.10;62.00;;;;;;5048527;28;19913;-59
2022/06/28 12:53:17;;;;;;;;;;;24.10;60.90;;;;;;5047922;28;19919;-59
2022/06/28 12:55:43;;;;;;;;;;;24.00;58.90;;;;;;5048575;28;19940;-58
2022/06/28 12:58:08;;;;;;;;;;;24.00;59.90;;;;;;5047322;28;19921;-57
2022/06/28 13:00:34;;;;;;;;;;;23.90;59.90;;;;;;5049104;28;20327;-57
2022/06/28 13:02:59;;;;;;;;;;;23.90;58.80;;;;;;5048222;28;19916;-58
2022/06/28 13:05:25;;;;;;;;;;;24.00;59.20;;;;;;5048420;28;19924;-58
2022/06/28 13:07:51;;;;;;;;;;;24.10;59.50;;;;;;5048131;28;20031;-59
2022/06/28 13:10:16;;;;;;;;;;;24.10;59.70;;;;;;5048472;28;19912;-59
2022/06/28 13:12:42;;;;;;;;;;;24.20;60.00;;;;;;5051131;28;20337;-58
2022/06/28 13:15:09;;;;;;;;;;;24.30;60.00;;;;;;5047394;28;21365;-59
2022/06/28 13:17:35;;;;;;;;;;;24.40;59.60;;;;;;5047902;28;19971;-58
2022/06/28 13:20:02;;;;;;;;;;;24.40;60.10;;;;;;5048795;28;19952;-59
2022/06/28 13:22:28;;;;;;;;;;;24.50;59.90;;;;;;5050573;28;19912;-59
2022/06/28 13:24:53;;;;;;;;;;;24.50;58.70;;;;;;5049150;28;19920;-58
2022/06/28 13:27:19;;;;;;;;;;;24.50;58.10;;;;;;5048593;28;20362;-58
2022/06/28 13:29:44;;;;;;;;;;;24.60;58.80;;;;;;5048379;28;19924;-59
2022/06/28 13:32:10;;;;;;;;;;;24.60;58.90;;;;;;5048097;28;20351;-57
2022/06/28 13:34:35;;;;;;;;;;;24.60;58.50;;;;;;5046950;28;19917;-58
2022/06/28 13:37:02;;;;;;;;;;;24.60;59.20;;;;;;5047751;28;20008;-58
2022/06/28 13:39:28;;;;;;;;;;;24.60;58.50;;;;;;5047997;28;19996;-58
2022/06/28 13:41:54;;;;;;;;;;;24.60;57.90;;;;;;5046888;28;20409;-58
2022/06/28 13:44:20;;;;;;;;;;;24.50;58.00;;;;;;5046378;28;20390;-57
2022/06/28 13:46:46;;;;;;;;;;;24.50;57.90;;;;;;5048533;28;19917;-58
2022/06/28 13:49:11;;;;;;;;;;;24.50;57.60;;;;;;5046465;28;20445;-57
2022/06/28 13:51:37;;;;;;;;;;;24.50;57.90;;;;;;5029153;28;20295;-59
2022/06/28 13:54:03;;;;;;;;;;;24.50;57.00;;;;;;5047523;28;19970;-59
2022/06/28 13:56:29;;;;;;;;;;;24.60;57.40;;;;;;5047226;28;19913;-61
2022/06/28 13:58:54;;;;;;;;;;;24.60;57.50;;;;;;5048547;28;19931;-58
2022/06/28 14:01:20;;;;;;;;;;;24.70;56.10;;;;;;5048627;28;19921;-59
2022/06/28 14:03:46;;;;;;;;;;;24.80;57.20;;;;;;5048468;28;19954;-59
2022/06/28 14:06:12;;;;;;;;;;;24.90;56.90;;;;;;5049359;28;20441;-59
2022/06/28 14:08:37;;;;;;;;;;;24.90;56.80;;;;;;5028938;28;19951;-58
2022/06/28 14:11:03;;;;;;;;;;;24.90;57.70;;;;;;5046965;28;19917;-58
2022/06/28 14:13:28;;;;;;;;;;;24.90;57.80;;;;;;5046641;28;19917;-58
2022/06/28 14:15:54;;;;;;;;;;;25.00;58.10;;;;;;5048670;28;20354;-59
2022/06/28 14:18:20;;;;;;;;;;;25.00;57.00;;;;;;5047030;28;20324;-58
2022/06/28 14:20:46;;;;;;;;;;;25.10;56.90;;;;;;5047926;28;19991;-58
2022/06/28 14:23:11;;;;;;;;;;;25.10;57.30;;;;;;5044883;28;19921;-60
2022/06/28 14:25:37;;;;;;;;;;;25.20;56.70;;;;;;5047704;28;20012;-58
2022/06/28 14:28:02;;;;;;;;;;;25.20;56.50;;;;;;5049037;28;19959;-59
2022/06/28 14:30:29;;;;;;;;;;;25.20;56.60;;;;;;5047832;28;19919;-59